Fruitdale, AL

1:27 AM CDT on June 02, 2015 (GMT -0500)
York Hill Gulfcrest, Alabama | | Change Station
CLOSE
Current Station
Personal Weather Station
Location: Chunchula, AL
Elevation: 190 ft
Nearby Weather Stations

Elev 190 ft 30.99 °N, 88.24 °W | Updated 11 minutes ago

Mostly Cloudy
Mostly Cloudy
67.6 °F
Feels Like 67.6 °F
N
0.0
Wind Variable Wind from South

Today
High -- | Low -- °F
--% Chance of Precip.
Yesterday
High -- | Low -- °F
Precip. -- in
5:49 AM 7:53 PM
Full, 100% visible
Pressure 30.01 in
Visibility 1.2 miles
Clouds Overcast 200 ft
Dew Point 66 °F
Humidity 93%
Rainfall 0.00 in
Snow Depth Not available.
UV 0 out of 12
Pollen 1.90 out of 12
Air Quality Not available.
Flu Activity Sporadic
SPECI KMOB 020622Z AUTO 05004KT 1 1/4SM BR OVC002 21/21 A3001 RMK AO2 T02110211

More Conditions Fewer Conditions

Pressure 30.01 in
Visibility 1.2 miles
Clouds Overcast 200 ft
Dew Point 66 °F
Humidity 93%
Rainfall 0.00 in
Snow Depth Not available.
UV 0 out of 12
Pollen 1.90 out of 12
Air Quality Not available.
Flu Activity Sporadic
SPECI KMOB 020622Z AUTO 05004KT 1 1/4SM BR OVC002 21/21 A3001 RMK AO2 T02110211

More Conditions Fewer Conditions

10-Day Weather Forecast

Almanac

Astronomy

Jun. 02, 2015 Rise Set
Actual Time
Civil Twilight
Nautical Twilight
Astronomical Twilight
Moon
Length of Visible Light
Length of Day
Tomorrow will be .
, % of the Moon is Illuminated

Today's Extremes

State Highs State Lows

Community

WunderPhotos

Upload Photos

1,825,923 photos uploaded!

WunderBlogs® & News

Nearby

Air Quality

  Air Quality AQ Index Pollutant
Not available.

Snow Depth

Station Depth Elevation

Earthquake Activity

City Distance Mag. Time & Date
Minimum magnitude displayed is 2.5.

Coastal Water Temperatures

Place Temperature

Stations

Nearby Weather Stations

Station Location Temp. Windchill Dew Point Humidity Wind Precip. Elev Updated Type